createdAt,value
2022-12-04T00:27:28.341Z,91
2022-12-04T00:56:47.326Z,90
2022-12-04T01:25:59.906Z,90
2022-12-04T01:55:04.982Z,90
2022-12-04T02:24:17.623Z,90
2022-12-04T02:53:36.274Z,91
2022-12-04T03:22:54.917Z,90
2022-12-04T03:52:01.947Z,90
2022-12-04T04:21:17.952Z,91
2022-12-04T04:50:22.520Z,92
2022-12-04T05:19:30.880Z,91
2022-12-04T05:48:49.599Z,91
2022-12-04T06:17:53.031Z,92
2022-12-04T06:47:01.694Z,92
2022-12-04T07:15:42.811Z,91
2022-12-04T07:44:49.077Z,91
2022-12-04T08:13:56.184Z,92
2022-12-04T08:43:06.908Z,92
2022-12-04T09:12:21.602Z,93
2022-12-04T09:41:25.110Z,92
2022-12-04T10:10:24.419Z,93
2022-12-04T10:39:38.257Z,91
2022-12-04T11:08:53.582Z,90
2022-12-04T11:38:09.214Z,90
2022-12-04T12:07:24.360Z,91
2022-12-04T12:36:25.431Z,91
2022-12-04T13:05:34.603Z,90
2022-12-04T13:34:52.306Z,90
2022-12-04T14:04:11.294Z,90
2022-12-04T14:33:32.315Z,92
2022-12-04T15:02:50.879Z,91
2022-12-04T15:31:57.533Z,100
2022-12-04T16:01:17.465Z,92
2022-12-04T16:30:26.734Z,91
2022-12-04T16:59:43.425Z,91
2022-12-04T17:28:49.730Z,91
2022-12-04T17:58:09.116Z,91
2022-12-04T18:27:26.416Z,91
2022-12-04T18:56:45.085Z,92
2022-12-04T19:26:06.274Z,93
2022-12-04T19:55:22.606Z,93
2022-12-04T20:24:37.136Z,95
2022-12-04T20:53:42.454Z,93
2022-12-04T21:22:56.458Z,95
2022-12-04T21:52:05.170Z,96
2022-12-04T22:21:15.157Z,97
2022-12-04T22:50:19.726Z,97
2022-12-04T23:19:10.901Z,99
2022-12-04T23:48:15.189Z,100
